Latest Weather Observations for Rottnest Island

IDW60801

Issued at 1:35 pm WST Thursday 18 September 2014 (issued every 30 minutes, with the page automatically refreshed every 10 minutes)

About weather observations | Map of weather stations | Latest weather observations for WA | Other Formats
Station Details ID: 009193 Name: ROTTNEST ISLAND Lat: -32.01 Lon: 115.50 Height: 43.1 m
Data from the previous 72 hours. | See also: Recent months at Rottnest Island
Date/Time
WST
Temp
°C
App
Temp
°C
Dew
Point
Rel
Hum
%
Delta-T
°C
Wind Press
QNH
hPa
Press
MSL
hPa
Rain
since 9 am
mm
Dir
 
Spd
km/h
Gust
km/h
Spd
kts
Gust
kts
18/01:30pm 20.4 14.3 12.9 62 4.3 SSW 37 46 20 25 1017.0 1016.9 0.0
18/01:00pm 19.8 13.3 11.8 60 4.4 SSW 37 44 20 24 1016.9 1016.8 0.0
18/12:30pm 19.7 13.5 13.9 69 3.3 SSW 39 48 21 26 1017.0 1016.9 0.0
18/12:00pm 20.2 15.9 15.4 74 2.8 SSW 32 43 17 23 1017.3 1017.2 0.0
18/11:30am 19.4 15.1 15.5 78 2.3 S 32 37 17 20 1017.3 1017.2 0.0
18/11:00am 19.7 16.0 16.0 79 2.2 S 30 35 16 19 1017.4 1017.3 0.0
18/10:30am 19.2 15.2 15.3 78 2.3 S 30 35 16 19 1017.4 1017.3 0.0
18/10:00am 19.2 15.5 15.9 81 2.0 S 30 35 16 19 1017.6 1017.5 0.0
18/09:30am 18.7 14.4 15.4 81 1.9 S 32 35 17 19 1017.6 1017.5 0.0
18/09:00am 18.7 14.5 15.6 82 1.8 S 32 37 17 20 1017.4 1017.3 0.0
18/08:30am 18.5 15.0 15.6 83 1.7 S 28 35 15 19 1017.3 1017.2 0.0
18/08:00am 18.2 14.7 15.6 85 1.5 S 28 35 15 19 1017.0 1016.9 0.0
18/07:30am 17.7 13.3 15.1 85 1.5 S 32 39 17 21 1016.7 1016.6 0.0
18/07:00am 17.3 13.0 15.5 89 1.1 S 32 35 17 19 1016.4 1016.3 0.0
18/06:30am 17.1 12.8 15.3 89 1.1 S 32 35 17 19 1016.1 1016.0 0.0
18/06:00am 17.2 12.7 15.0 87 1.3 S 32 35 17 19 1016.0 1015.9 0.0
18/05:30am 17.2 12.6 14.7 85 1.4 S 32 35 17 19 1015.7 1015.6 0.0
18/05:00am 17.3 12.8 14.8 85 1.4 S 32 37 17 20 1015.5 1015.4 0.0
18/04:30am 17.4 13.8 15.2 87 1.3 S 28 35 15 19 1015.5 1015.4 0.0
18/04:00am 17.4 12.8 15.2 87 1.3 S 33 39 18 21 1015.3 1015.2 0.0
18/03:30am 17.5 13.2 15.5 88 1.2 S 32 39 17 21 1015.4 1015.3 0.0
18/03:00am 17.6 13.0 15.2 86 1.4 S 33 41 18 22 1015.5 1015.4 0.0
18/02:30am 17.6 13.2 15.2 86 1.4 S 32 39 17 21 1015.3 1015.2 0.0
18/02:00am 17.6 13.7 15.4 87 1.3 S 30 35 16 19 1015.6 1015.5 0.0
18/01:30am 17.8 14.3 15.4 86 1.4 S 28 35 15 19 1015.7 1015.6 0.0
18/01:00am 17.7 14.0 15.1 85 1.5 S 28 33 15 18 1015.7 1015.6 0.0
18/12:30am 17.9 13.4 15.0 83 1.7 S 32 35 17 19 1015.7 1015.6 0.0
18/12:00am 18.0 13.4 14.7 81 1.9 S 32 37 17 20 1015.9 1015.8 0.0
 
Date/Time
WST
Temp
°C
App
Temp
°C
Dew
Point
Rel
Hum
%
Delta-T
°C
Wind Press
QNH
hPa
Press
MSL
hPa
Rain
since 9 am
mm
Dir
 
Spd
km/h
Gust
km/h
Spd
kts
Gust
kts
17/11:30pm 18.2 13.6 14.7 80 2.0 S 32 39 17 21 1016.1 1016.0 0.0
17/11:00pm 18.4 13.1 14.3 77 2.4 S 35 41 19 22 1016.1 1016.0 0.0
17/10:30pm 18.5 12.2 13.6 73 2.8 S 39 44 21 24 1016.1 1016.0 0.0
17/10:00pm 18.7 12.3 13.3 71 3.1 S 39 46 21 25 1016.2 1016.1 0.0
17/09:30pm 18.6 12.9 14.1 75 2.6 S 37 46 20 25 1016.2 1016.1 0.0
17/09:00pm 18.6 12.9 14.3 76 2.5 S 37 46 20 25 1016.2 1016.1 0.0
17/08:30pm 18.6 12.4 13.7 73 2.8 S 39 48 21 26 1016.0 1015.9 0.0
17/08:00pm 18.4 12.9 13.7 74 2.7 S 35 44 19 24 1015.9 1015.8 0.0
17/07:30pm 18.4 12.7 13.0 71 3.0 SSW 35 44 19 24 1015.5 1015.4 0.0
17/07:00pm 18.2 12.4 12.6 70 3.1 SSW 35 43 19 23 1015.1 1015.0 0.0
17/06:30pm 18.4 11.7 12.2 67 3.4 SSW 39 46 21 25 1014.8 1014.7 0.0
17/06:00pm 18.5 12.2 12.3 67 3.4 SSW 37 46 20 25 1014.6 1014.5 0.0
17/05:30pm 18.9 12.0 12.9 68 3.4 SSW 41 48 22 26 1014.5 1014.4 0.0
17/05:00pm 19.3 12.2 12.1 63 4.0 S 41 50 22 27 1014.2 1014.1 0.0
17/04:30pm 19.5 12.0 12.0 62 4.2 S 43 50 23 27 1013.9 1013.8 0.0
17/04:00pm 20.0 13.8 12.5 62 4.2 S 37 48 20 26 1013.4 1013.3 0.0
17/03:30pm 20.6 14.3 12.3 59 4.7 S 37 46 20 25 1013.2 1013.1 0.0
17/03:00pm 20.5 14.7 12.7 61 4.4 S 35 44 19 24 1013.2 1013.1 0.0
17/02:30pm 20.3 14.4 12.5 61 4.4 S 35 46 19 25 1013.3 1013.2 0.0
17/02:00pm 19.8 13.6 12.8 64 4.0 S 37 44 20 24 1013.6 1013.5 0.0
17/01:30pm 19.9 13.3 12.7 63 4.1 S 39 46 21 25 1013.9 1013.8 0.0
17/01:00pm 20.7 14.2 12.9 61 4.4 S 39 48 21 26 1014.0 1013.9 0.0
17/12:30pm 19.8 13.6 12.6 63 4.1 S 37 46 20 25 1014.3 1014.2 0.0
17/12:00pm 19.5 14.1 12.7 65 3.8 S 33 41 18 22 1014.4 1014.3 0.0
17/11:30am 19.5 14.6 12.7 65 3.8 S 30 33 16 18 1014.7 1014.6 0.0
17/11:00am 19.1 14.6 12.6 66 3.6 SSE 28 32 15 17 1015.3 1015.2 0.0
17/10:30am 18.2 14.0 11.0 63 3.9 SSE 24 28 13 15 1015.7 1015.6 0.0
17/10:00am 18.2 14.5 11.5 65 3.7 SSE 22 26 12 14 1016.3 1016.2 0.0
17/09:30am 18.5 14.6 12.0 66 3.6 S 24 28 13 15 1016.3 1016.2 0.0
17/09:00am 17.4 13.9 11.0 66 3.4 SSE 20 26 11 14 1016.2 1016.1 0.0
17/08:30am 17.0 13.4 10.6 66 3.4 SSE 20 28 11 15 1016.2 1016.1 0.0
17/08:00am 16.4 12.9 10.9 70 2.9 SE 20 28 11 15 1016.2 1016.1 0.0
17/07:30am 16.3 12.4 10.8 70 2.9 SE 22 26 12 14 1015.9 1015.8 0.0
17/07:00am 15.1 12.3 10.1 72 2.6 ESE 15 19 8 10 1015.8 1015.7 0.0
17/06:30am 15.4 12.3 10.4 72 2.6 SE 17 22 9 12 1015.8 1015.7 0.0
17/06:00am 15.7 12.1 10.5 71 2.7 SE 20 24 11 13 1015.8 1015.7 0.0
17/05:30am 15.6 12.6 10.6 72 2.6 SE 17 22 9 12 1015.5 1015.4 0.0
17/05:00am 15.4 12.6 10.0 70 2.8 ESE 15 20 8 11 1015.4 1015.3 0.0
17/04:30am 15.3 12.8 9.7 69 2.9 ESE 13 17 7 9 1015.3 1015.2 0.0
17/04:00am 15.3 12.4 9.7 69 2.9 ESE 15 19 8 10 1015.3 1015.2 0.0
17/03:30am 15.8 12.3 10.3 70 2.9 SE 19 22 10 12 1015.3 1015.2 0.0
17/03:00am 15.9 12.3 10.0 68 3.1 SE 19 24 10 13 1015.2 1015.1 0.0
17/02:30am 15.7 13.1 9.4 66 3.3 ESE 13 20 7 11 1015.2 1015.1 0.0
17/02:00am 16.3 13.4 9.5 64 3.5 ESE 15 22 8 12 1015.4 1015.3 0.0
17/01:30am 16.5 13.8 10.4 67 3.2 ESE 15 20 8 11 1015.6 1015.5 0.0
17/01:00am 17.3 13.5 11.1 67 3.3 SE 22 28 12 15 1015.6 1015.5 0.0
17/12:30am 17.3 13.5 11.1 67 3.4 SE 22 26 12 14 1015.6 1015.5 0.0
17/12:00am 17.9 13.3 11.0 64 3.7 SE 26 33 14 18 1015.7 1015.6 0.0
 
Date/Time
WST
Temp
°C
App
Temp
°C
Dew
Point
Rel
Hum
%
Delta-T
°C
Wind Press
QNH
hPa
Press
MSL
hPa
Rain
since 9 am
mm
Dir
 
Spd
km/h
Gust
km/h
Spd
kts
Gust
kts
16/11:30pm 18.2 13.7 11.5 65 3.7 SE 26 30 14 16 1016.0 1015.9 0.0
16/11:00pm 18.3 14.3 11.8 66 3.6 SE 24 30 13 16 1016.2 1016.1 0.0
16/10:30pm 18.3 15.2 12.3 68 3.3 SE 20 24 11 13 1016.6 1016.5 0.0
16/10:00pm 18.2 15.2 12.0 67 3.4 SE 19 22 10 12 1016.8 1016.7 0.0
16/09:30pm 18.4 16.1 11.7 65 3.7 ESE 15 20 8 11 1016.9 1016.8 0.0
16/09:00pm 18.8 16.2 11.9 64 3.8 ESE 17 20 9 11 1016.9 1016.8 0.0
16/08:30pm 19.0 16.9 12.3 65 3.7 ESE 15 20 8 11 1016.8 1016.7 0.0
16/08:00pm 18.8 16.8 14.9 78 2.3 SSE 19 24 10 13 1016.6 1016.5 0.0
16/07:30pm 18.9 15.0 14.4 75 2.6 S 28 35 15 19 1016.4 1016.3 0.0
16/07:00pm 18.7 13.8 13.8 73 2.8 S 32 39 17 21 1016.1 1016.0 0.0
16/06:30pm 18.4 13.2 13.5 73 2.8 S 33 41 18 22 1015.9 1015.8 0.0
16/06:00pm 18.5 13.3 12.9 70 3.1 S 32 41 17 22 1015.7 1015.6 0.0
16/05:30pm 18.6 13.1 12.6 68 3.4 S 33 43 18 23 1015.6 1015.5 0.0
16/05:00pm 19.0 13.7 13.0 68 3.4 S 33 41 18 22 1015.7 1015.6 0.0
16/04:30pm 19.3 14.4 12.6 65 3.8 S 30 37 16 20 1015.8 1015.7 0.0
16/04:00pm 19.6 15.3 13.1 66 3.7 S 28 35 15 19 1015.8 1015.7 0.0
16/03:30pm 19.6 14.5 11.9 61 4.3 S 30 37 16 20 1015.8 1015.7 0.0
16/03:00pm 19.9 15.1 11.7 59 4.5 S 28 32 15 17 1016.0 1015.9 0.0
16/02:30pm 19.8 15.4 11.6 59 4.5 S 26 32 14 17 1016.2 1016.1 0.0
16/02:00pm 19.4 14.9 11.4 60 4.4 S 26 32 14 17 1016.4 1016.3 0.0
16/01:30pm 19.5 15.5 11.8 61 4.3 S 24 30 13 16 1016.6 1016.5 0.0
16/01:00pm 19.7 15.6 10.1 54 5.2 SSE 22 28 12 15 1017.1 1017.0 0.0
16/12:30pm 19.7 15.0 9.3 51 5.5 SSE 24 28 13 15 1017.8 1017.7 0.0
16/12:00pm 19.6 15.3 9.2 51 5.5 SSE 22 28 12 15 1018.5 1018.4 0.0
16/11:30am 19.3 15.3 9.2 52 5.3 SE 20 33 11 18 1019.0 1018.9 0.0
16/11:00am 19.0 15.0 9.2 53 5.1 ESE 20 26 11 14 1019.2 1019.1 0.0
16/10:30am 18.0 13.9 8.8 55 4.8 SE 20 32 11 17 1019.6 1019.6 0.0
16/10:00am 17.4 13.7 9.6 60 4.1 ESE 19 30 10 16 1020.0 1020.0 0.0
16/09:30am 16.2 11.9 9.2 63 3.6 SE 22 30 12 16 1020.0 1020.0 0.0
16/09:00am 16.2 12.5 9.6 65 3.4 ESE 19 28 10 15 1020.3 1020.3 0.0
16/08:30am 15.5 10.7 8.7 64 3.5 E 24 32 13 17 1020.5 1020.5 0.0
16/08:00am 14.6 10.2 8.8 68 2.9 E 22 33 12 18 1020.6 1020.6 0.0
16/07:30am 14.3 9.1 8.7 69 2.8 E 26 37 14 20 1020.6 1020.6 0.0
16/07:00am 13.7 9.2 8.7 72 2.5 E 22 30 12 16 1020.3 1020.3 0.0
16/06:30am 13.3 8.9 8.8 74 2.3 E 22 32 12 17 1020.0 1020.0 0.0
16/06:00am 13.5 7.9 8.6 72 2.5 E 28 39 15 21 1020.1 1020.1 0.0
16/05:30am 13.3 8.4 8.6 73 2.4 E 24 37 13 20 1019.9 1019.9 0.0
16/05:00am 13.5 9.1 8.8 73 2.4 E 22 32 12 17 1020.0 1020.0 0.0
16/04:30am 13.6 9.5 8.7 72 2.5 E 20 28 11 15 1019.9 1019.9 0.0
16/04:00am 13.6 9.5 8.7 72 2.5 E 20 32 11 17 1019.7 1019.7 0.0
16/03:30am 14.0 8.4 8.6 70 2.7 E 28 39 15 21 1019.1 1019.0 0.0
16/03:00am 14.3 8.6 8.3 67 3.0 ESE 28 41 15 22 1018.9 1018.8 0.0
16/02:30am 14.9 9.8 7.5 61 3.7 ESE 24 32 13 17 1019.1 1019.0 0.0
16/02:00am 15.1 10.7 7.6 61 3.7 ESE 20 33 11 18 1019.5 1019.5 0.0
16/01:30am 15.3 11.1 8.1 62 3.6 ESE 20 33 11 18 1019.6 1019.6 0.0
16/01:00am 15.7 11.7 8.9 64 3.5 ESE 20 30 11 16 1020.1 1020.1 0.0
16/12:30am 16.0 11.7 9.2 64 3.5 ESE 22 30 12 16 1020.2 1020.2 0.0
16/12:00am 16.2 11.8 10.5 69 3.0 SE 24 35 13 19 1020.2 1020.2 0.0
 
Date/Time
WST
Temp
°C
App
Temp
°C
Dew
Point
Rel
Hum
%
Delta-T
°C
Wind Press
QNH
hPa
Press
MSL
hPa
Rain
since 9 am
mm
Dir
 
Spd
km/h
Gust
km/h
Spd
kts
Gust
kts
15/11:30pm 16.5 11.5 11.0 70 3.0 SE 28 37 15 20 1020.3 1020.3 0.0
15/11:00pm 16.9 12.6 12.0 73 2.7 SSE 26 35 14 19 1020.5 1020.5 0.0
15/10:30pm 17.1 11.5 11.6 70 3.0 SSE 32 39 17 21 1020.7 1020.7 0.0
15/10:00pm 17.1 10.5 11.2 68 3.2 SSE 37 43 20 23 1021.0 1021.0 0.0
15/09:30pm 17.3 10.5 11.8 70 3.0 S 39 46 21 25 1021.2 1021.2 0.0
15/09:00pm 17.3 10.3 11.1 67 3.3 S 39 48 21 26 1021.4 1021.4 0.0
15/08:30pm 17.2 10.2 11.2 68 3.2 S 39 46 21 25 1021.6 1021.6 0.0
15/08:00pm 17.2 10.3 11.7 70 3.0 S 39 46 21 25 1021.4 1021.4 0.0
15/07:30pm 17.1 10.1 11.4 69 3.1 S 39 48 21 26 1021.4 1021.4 0.0
15/07:00pm 17.1 10.1 11.4 69 3.1 S 39 48 21 26 1021.2 1021.2 0.0
15/06:30pm 16.9 10.1 11.8 72 2.8 S 39 48 21 26 1021.1 1021.1 0.0
15/06:00pm 17.0 10.2 12.1 73 2.7 S 39 46 21 25 1021.1 1021.1 0.0
15/05:30pm 17.3 11.4 12.4 73 2.7 S 35 44 19 24 1021.2 1021.2 0.0
15/05:00pm 17.6 11.7 12.5 72 2.8 S 35 43 19 23 1021.1 1021.1 0.0
15/04:30pm 17.8 12.0 12.7 72 2.8 S 35 41 19 22 1021.0 1021.0 0.0
15/04:00pm 18.1 12.9 12.8 71 3.0 S 32 37 17 20 1021.0 1021.0 0.0
15/03:30pm 18.2 13.5 13.3 73 2.8 S 30 37 16 20 1021.0 1021.0 0.0
15/03:00pm 18.3 13.6 13.2 72 2.9 S 30 35 16 19 1021.1 1021.1 0.0
15/02:30pm 18.4 13.8 13.5 73 2.8 S 30 35 16 19 1021.3 1021.3 0.0
15/02:00pm 17.9 14.0 13.2 74 2.6 S 26 32 14 17 1021.4 1021.4 0.0

Other Formats:

Comma delimited format used in spreadsheet applications
http://www.bom.gov.au/fwo/IDW60801/IDW60801.94602.axf

JavaScript Object Notation format (JSON) in row-major order
http://www.bom.gov.au/fwo/IDW60801/IDW60801.94602.json